createdAt,value
2018-12-15T00:00:19.175Z,2.60
2018-12-15T00:02:50.063Z,2.50
2018-12-15T00:05:20.838Z,2.50
2018-12-15T00:07:49.669Z,2.50
2018-12-15T00:10:18.558Z,2.50
2018-12-15T00:12:47.405Z,2.40
2018-12-15T00:15:16.237Z,2.50
2018-12-15T00:17:45.062Z,2.40
2018-12-15T00:20:13.846Z,2.40
2018-12-15T00:22:42.799Z,2.40
2018-12-15T00:25:11.603Z,2.50
2018-12-15T00:27:40.453Z,2.50
2018-12-15T00:30:09.270Z,2.50
2018-12-15T00:32:38.088Z,2.40
2018-12-15T00:35:07.121Z,2.40
2018-12-15T00:37:35.924Z,2.40
2018-12-15T00:40:05.547Z,2.40
2018-12-15T00:42:36.413Z,2.40
2018-12-15T00:45:05.578Z,2.50
2018-12-15T00:47:34.522Z,2.40
2018-12-15T00:50:03.530Z,2.40
2018-12-15T00:52:32.374Z,2.40
2018-12-15T00:55:01.462Z,2.30
2018-12-15T00:57:30.353Z,2.40
2018-12-15T00:59:59.164Z,2.40
2018-12-15T01:02:28.057Z,2.40
2018-12-15T01:04:56.844Z,2.40
2018-12-15T01:07:25.889Z,2.30
2018-12-15T01:09:54.722Z,2.30
2018-12-15T01:12:23.552Z,2.40
2018-12-15T01:14:52.343Z,2.40
2018-12-15T01:17:21.126Z,2.30
2018-12-15T01:19:49.965Z,2.30
2018-12-15T01:22:18.806Z,2.40
2018-12-15T01:24:47.616Z,2.40
2018-12-15T01:27:16.374Z,2.40
2018-12-15T01:29:45.150Z,2.40
2018-12-15T01:32:13.958Z,2.40
2018-12-15T01:34:42.726Z,2.40
2018-12-15T01:37:11.505Z,2.30
2018-12-15T01:39:40.267Z,2.40
2018-12-15T01:42:09.031Z,2.40
2018-12-15T01:44:37.869Z,2.40
2018-12-15T01:47:06.627Z,2.40
2018-12-15T01:49:35.558Z,2.40
2018-12-15T01:52:04.458Z,2.50
2018-12-15T01:54:33.242Z,2.50
2018-12-15T01:57:02.045Z,2.40
2018-12-15T01:59:30.914Z,2.40
2018-12-15T02:01:59.714Z,2.40
2018-12-15T02:04:28.642Z,2.40
2018-12-15T02:06:57.481Z,2.40
2018-12-15T02:09:26.260Z,2.40
2018-12-15T02:11:55.039Z,2.40
2018-12-15T02:14:23.890Z,2.40
2018-12-15T02:16:52.754Z,2.40
2018-12-15T02:19:21.524Z,2.30
2018-12-15T02:21:50.294Z,2.40
2018-12-15T02:24:19.150Z,2.40
2018-12-15T02:26:47.942Z,2.40
2018-12-15T02:29:16.731Z,2.40
2018-12-15T02:31:45.618Z,2.30
2018-12-15T02:34:14.437Z,2.40
2018-12-15T02:36:43.335Z,2.30
2018-12-15T02:39:12.603Z,2.40
2018-12-15T02:41:47.185Z,2.40
2018-12-15T02:44:12.296Z,2.40
2018-12-15T02:46:41.074Z,2.40
2018-12-15T02:49:09.843Z,2.40
2018-12-15T02:51:38.613Z,2.40
2018-12-15T02:54:07.501Z,2.40
2018-12-15T02:56:36.331Z,2.40
2018-12-15T02:59:05.142Z,2.40
2018-12-15T03:01:33.915Z,2.30
2018-12-15T03:04:02.773Z,2.30
2018-12-15T03:06:31.809Z,2.30
2018-12-15T03:09:00.581Z,2.30
2018-12-15T03:11:29.413Z,2.30
2018-12-15T03:13:58.238Z,2.20
2018-12-15T03:16:27.099Z,2.20
2018-12-15T03:18:55.984Z,2.20
2018-12-15T03:21:24.795Z,2.10
2018-12-15T03:23:53.582Z,2.10
2018-12-15T03:26:22.391Z,2.10
2018-12-15T03:28:51.183Z,2.10
2018-12-15T03:31:19.975Z,2.20
2018-12-15T03:33:48.774Z,2.20
2018-12-15T03:36:17.968Z,2.20
2018-12-15T03:38:46.777Z,2.30
2018-12-15T03:41:15.578Z,2.20
2018-12-15T03:43:44.402Z,2.20
2018-12-15T03:46:13.254Z,2.20
2018-12-15T03:48:42.059Z,2.20
2018-12-15T03:51:10.922Z,2.20
2018-12-15T03:53:39.711Z,2.20
2018-12-15T03:56:08.574Z,2.10
2018-12-15T03:58:37.366Z,2.10
2018-12-15T04:01:06.313Z,2.10
2018-12-15T04:03:35.129Z,2.10
2018-12-15T04:06:04.066Z,2.10
2018-12-15T04:08:32.948Z,2.10
2018-12-15T04:11:01.722Z,2.20
2018-12-15T04:13:30.508Z,2.20
2018-12-15T04:15:59.279Z,2.20
2018-12-15T04:18:28.043Z,2.10
2018-12-15T04:20:56.879Z,2.20
2018-12-15T04:23:25.660Z,2.10
2018-12-15T04:25:54.439Z,2.00
2018-12-15T04:28:23.261Z,2.00
2018-12-15T04:30:52.030Z,2.00
2018-12-15T04:33:20.979Z,2.10
2018-12-15T04:35:49.826Z,2.00
2018-12-15T04:38:18.614Z,2.00
2018-12-15T04:40:47.414Z,2.10
2018-12-15T04:43:16.299Z,2.00
2018-12-15T04:45:45.084Z,2.00
2018-12-15T04:48:13.921Z,2.10
2018-12-15T04:50:42.698Z,2.00
2018-12-15T04:53:11.522Z,2.00
2018-12-15T04:55:40.401Z,2.00
2018-12-15T04:58:09.205Z,2.00
2018-12-15T05:00:38.005Z,2.00
2018-12-15T05:03:06.937Z,2.00
2018-12-15T05:05:35.744Z,2.00
2018-12-15T05:08:04.541Z,2.00
2018-12-15T05:10:33.426Z,2.00
2018-12-15T05:13:02.242Z,2.10
2018-12-15T05:15:31.128Z,2.10
2018-12-15T05:17:59.907Z,2.10
2018-12-15T05:20:28.687Z,2.10
2018-12-15T05:22:57.554Z,2.00
2018-12-15T05:25:26.365Z,2.00
2018-12-15T05:27:55.143Z,2.00
2018-12-15T05:30:25.071Z,2.00
2018-12-15T05:32:53.882Z,2.00
2018-12-15T05:35:22.759Z,2.00
2018-12-15T05:37:51.535Z,2.00
2018-12-15T05:40:20.462Z,2.10
2018-12-15T05:42:49.342Z,2.10
2018-12-15T05:45:18.114Z,2.10
2018-12-15T05:47:46.902Z,2.10
2018-12-15T05:50:15.682Z,2.10
2018-12-15T05:52:44.499Z,2.10
2018-12-15T05:55:13.389Z,2.10
2018-12-15T05:57:42.168Z,2.10
2018-12-15T06:00:11.231Z,2.10
2018-12-15T06:02:40.244Z,2.10
2018-12-15T06:05:09.768Z,2.10
2018-12-15T06:07:38.555Z,2.20
2018-12-15T06:10:07.510Z,2.20
2018-12-15T06:12:36.287Z,2.20
2018-12-15T06:15:06.078Z,2.10
2018-12-15T06:17:34.841Z,2.10
2018-12-15T06:20:04.271Z,2.20
2018-12-15T06:22:33.034Z,2.20
2018-12-15T06:25:01.810Z,2.20
2018-12-15T06:27:30.665Z,2.20
2018-12-15T06:29:59.426Z,2.10
2018-12-15T06:32:28.191Z,2.20
2018-12-15T06:34:56.973Z,2.10
2018-12-15T06:37:25.849Z,2.10
2018-12-15T06:39:54.711Z,2.20
2018-12-15T06:42:23.516Z,2.20
2018-12-15T06:44:52.322Z,2.20
2018-12-15T06:47:21.115Z,2.20
2018-12-15T06:49:49.890Z,2.10
2018-12-15T06:52:18.654Z,2.10
2018-12-15T06:54:47.421Z,2.10
2018-12-15T06:57:16.197Z,2.10
2018-12-15T06:59:45.035Z,2.10
2018-12-15T07:02:13.895Z,2.00
2018-12-15T07:04:42.677Z,2.00
2018-12-15T07:07:11.453Z,2.10
2018-12-15T07:09:40.222Z,2.10
2018-12-15T07:12:09.008Z,2.10
2018-12-15T07:14:37.888Z,2.00
2018-12-15T07:17:07.019Z,2.00
2018-12-15T07:19:35.810Z,2.00
2018-12-15T07:22:04.705Z,2.00
2018-12-15T07:24:33.585Z,2.00
2018-12-15T07:27:02.419Z,2.10
2018-12-15T07:29:31.234Z,2.10
2018-12-15T07:32:00.037Z,2.00
2018-12-15T07:34:28.835Z,2.10
2018-12-15T07:36:57.662Z,2.00
2018-12-15T07:39:26.454Z,2.00
2018-12-15T07:41:55.337Z,2.10
2018-12-15T07:44:24.134Z,2.10
2018-12-15T07:46:52.926Z,2.10
2018-12-15T07:49:21.711Z,2.00
2018-12-15T07:51:50.529Z,2.00
2018-12-15T07:54:19.318Z,2.00
2018-12-15T07:56:48.240Z,2.00
2018-12-15T07:59:17.039Z,2.00
2018-12-15T08:01:45.860Z,2.00
2018-12-15T08:04:14.622Z,2.00
2018-12-15T08:06:43.462Z,2.00
2018-12-15T08:09:12.267Z,2.00
2018-12-15T08:11:46.420Z,2.00
2018-12-15T08:14:15.314Z,2.10
2018-12-15T08:16:44.102Z,2.00
2018-12-15T08:19:12.889Z,2.00
2018-12-15T08:21:41.697Z,2.00
2018-12-15T08:24:10.525Z,2.10
2018-12-15T08:26:39.336Z,2.10
2018-12-15T08:29:08.114Z,2.10
2018-12-15T08:31:37.006Z,2.10
2018-12-15T08:34:05.869Z,2.20
2018-12-15T08:36:34.639Z,2.20
2018-12-15T08:39:06.395Z,2.10
2018-12-15T08:41:36.218Z,2.10
2018-12-15T08:44:05.195Z,2.10
2018-12-15T08:46:33.979Z,2.20
2018-12-15T08:49:04.800Z,2.20
2018-12-15T08:51:33.632Z,2.20
2018-12-15T08:54:02.508Z,2.20
2018-12-15T08:56:31.310Z,2.20
2018-12-15T08:59:00.157Z,2.20
2018-12-15T09:01:29.032Z,2.20
2018-12-15T09:03:57.787Z,2.20
2018-12-15T09:06:26.653Z,2.30
2018-12-15T09:08:55.476Z,2.30
2018-12-15T09:11:24.292Z,2.20
2018-12-15T09:13:53.074Z,2.20
2018-12-15T09:16:26.447Z,2.30
2018-12-15T09:18:52.842Z,2.40
2018-12-15T09:21:21.643Z,2.40
2018-12-15T09:23:50.526Z,2.40
2018-12-15T09:26:20.380Z,2.50
2018-12-15T09:28:49.320Z,2.50
2018-12-15T09:31:18.291Z,2.50
2018-12-15T09:33:47.150Z,2.50
2018-12-15T09:36:16.029Z,2.40
2018-12-15T09:38:44.843Z,2.40
2018-12-15T09:41:13.722Z,2.50
2018-12-15T09:43:42.750Z,2.50
2018-12-15T09:46:11.653Z,2.60
2018-12-15T09:48:40.491Z,2.60
2018-12-15T09:51:09.317Z,2.60
2018-12-15T09:53:38.279Z,2.60
2018-12-15T09:56:07.181Z,2.60
2018-12-15T09:58:37.026Z,2.60
2018-12-15T10:01:06.006Z,2.50
2018-12-15T10:03:34.787Z,2.50
2018-12-15T10:06:03.610Z,2.50
2018-12-15T10:08:32.427Z,2.60
2018-12-15T10:11:01.310Z,2.60
2018-12-15T10:13:30.125Z,2.70
2018-12-15T10:15:58.957Z,2.70
2018-12-15T10:18:27.754Z,2.80
2018-12-15T10:20:56.559Z,2.80
2018-12-15T10:23:25.352Z,2.70
2018-12-15T10:25:54.265Z,2.70
2018-12-15T10:28:23.058Z,2.60
2018-12-15T10:30:57.230Z,2.60
2018-12-15T10:33:26.042Z,2.60
2018-12-15T10:35:54.846Z,2.60
2018-12-15T10:38:23.669Z,2.60
2018-12-15T10:40:52.457Z,2.60
2018-12-15T10:43:21.274Z,2.60
2018-12-15T10:45:50.055Z,2.50
2018-12-15T10:48:18.854Z,2.50
2018-12-15T10:50:47.763Z,2.60
2018-12-15T10:53:16.651Z,2.60
2018-12-15T10:55:45.430Z,2.60
2018-12-15T10:58:14.349Z,2.70
2018-12-15T11:00:48.652Z,2.60
2018-12-15T11:03:17.455Z,2.60
2018-12-15T11:05:47.381Z,2.60
2018-12-15T11:08:16.269Z,2.70
2018-12-15T11:10:45.093Z,2.80
2018-12-15T11:13:13.902Z,2.70
2018-12-15T11:15:42.700Z,2.70
2018-12-15T11:18:11.499Z,2.50
2018-12-15T11:20:40.269Z,2.50
2018-12-15T11:23:09.052Z,2.60
2018-12-15T11:25:37.825Z,2.60
2018-12-15T11:28:06.605Z,2.60
2018-12-15T11:30:35.378Z,2.60
2018-12-15T11:33:05.270Z,2.70
2018-12-15T11:35:34.182Z,2.80
2018-12-15T11:38:02.965Z,2.80
2018-12-15T11:40:32.733Z,2.80
2018-12-15T11:43:01.570Z,2.80
2018-12-15T11:45:30.326Z,2.80
2018-12-15T11:47:59.102Z,2.80
2018-12-15T11:50:27.893Z,2.80
2018-12-15T11:52:56.702Z,2.70
2018-12-15T11:55:25.545Z,2.70
2018-12-15T11:57:54.348Z,2.70
2018-12-15T12:00:23.239Z,2.80
2018-12-15T12:02:52.094Z,2.70
2018-12-15T12:05:20.946Z,2.80
2018-12-15T12:07:50.734Z,2.90
2018-12-15T12:10:19.537Z,2.90
2018-12-15T12:12:48.402Z,2.90
2018-12-15T12:15:17.173Z,2.80
2018-12-15T12:17:46.169Z,2.80
2018-12-15T12:20:14.958Z,2.90
2018-12-15T12:22:43.856Z,2.90
2018-12-15T12:25:12.623Z,2.90
2018-12-15T12:30:11.446Z,3.00
2018-12-15T12:32:40.257Z,2.90
2018-12-15T12:35:09.032Z,2.70
2018-12-15T12:37:37.894Z,2.80
2018-12-15T12:40:06.835Z,2.70
2018-12-15T12:42:35.825Z,2.80
2018-12-15T12:45:05.204Z,2.80
2018-12-15T12:47:35.029Z,2.70
2018-12-15T12:50:04.589Z,2.70
2018-12-15T12:52:33.382Z,2.80
2018-12-15T12:55:02.222Z,2.80
2018-12-15T12:57:31.029Z,2.80
2018-12-15T12:59:59.831Z,2.80
2018-12-15T13:02:28.599Z,2.80
2018-12-15T13:04:57.394Z,2.80
2018-12-15T13:07:26.269Z,2.80
2018-12-15T13:09:55.057Z,2.90
2018-12-15T13:12:23.846Z,2.90
2018-12-15T13:14:52.665Z,2.90
2018-12-15T13:17:21.484Z,2.90
2018-12-15T13:19:50.342Z,3.00
2018-12-15T13:22:19.098Z,3.00
2018-12-15T13:24:48.026Z,3.00
2018-12-15T13:27:16.830Z,3.10
2018-12-15T13:29:45.672Z,3.00
2018-12-15T13:32:14.570Z,3.10
2018-12-15T13:34:43.374Z,3.00
2018-12-15T13:37:12.261Z,3.00
2018-12-15T13:39:41.179Z,3.00
2018-12-15T13:42:10.190Z,3.00
2018-12-15T13:44:38.986Z,3.00
2018-12-15T13:47:07.798Z,3.10
2018-12-15T13:49:36.710Z,3.10
2018-12-15T13:52:05.663Z,3.00
2018-12-15T13:54:34.487Z,3.00
2018-12-15T13:57:03.382Z,2.90
2018-12-15T13:59:32.241Z,2.90
2018-12-15T14:02:01.096Z,2.90
2018-12-15T14:04:29.919Z,2.90
2018-12-15T14:06:58.823Z,2.90
2018-12-15T14:09:27.657Z,2.90
2018-12-15T14:11:56.577Z,2.90
2018-12-15T14:14:25.553Z,2.90
2018-12-15T14:16:54.409Z,2.90
2018-12-15T14:19:23.292Z,2.80
2018-12-15T14:21:52.094Z,2.80
2018-12-15T14:24:20.930Z,2.80
2018-12-15T14:26:49.857Z,2.80
2018-12-15T14:29:18.761Z,2.90
2018-12-15T14:31:47.566Z,2.90
2018-12-15T14:34:16.402Z,2.90
2018-12-15T14:36:45.243Z,2.80
2018-12-15T14:39:14.139Z,2.80
2018-12-15T14:41:43.023Z,2.80
2018-12-15T14:44:11.847Z,2.60
2018-12-15T14:46:41.672Z,2.60
2018-12-15T14:49:10.512Z,2.50
2018-12-15T14:51:39.323Z,2.50
2018-12-15T14:54:08.971Z,2.50
2018-12-15T14:56:38.005Z,2.50
2018-12-15T14:59:06.873Z,2.50
2018-12-15T15:01:35.703Z,2.50
2018-12-15T15:04:04.710Z,2.50
2018-12-15T15:06:33.679Z,2.40
2018-12-15T15:09:02.810Z,2.40
2018-12-15T15:11:31.624Z,2.30
2018-12-15T15:14:00.662Z,2.30
2018-12-15T15:16:29.551Z,2.20
2018-12-15T15:18:58.403Z,2.20
2018-12-15T15:21:27.246Z,2.10
2018-12-15T15:23:56.176Z,2.00
2018-12-15T15:26:24.991Z,2.10
2018-12-15T15:28:53.848Z,1.90
2018-12-15T15:31:22.989Z,3.10
2018-12-15T15:33:51.780Z,3.20
2018-12-15T15:36:20.641Z,2.90
2018-12-15T15:38:49.449Z,2.50
2018-12-15T15:41:18.344Z,2.20
2018-12-15T15:43:47.286Z,2.10
2018-12-15T15:46:16.079Z,2.00
2018-12-15T15:48:44.856Z,2.00
2018-12-15T15:51:13.663Z,1.90
2018-12-15T15:53:42.532Z,1.90
2018-12-15T15:56:11.695Z,1.80
2018-12-15T15:58:40.498Z,1.80
2018-12-15T16:01:09.329Z,1.70
2018-12-15T16:03:38.172Z,1.70
2018-12-15T16:06:07.002Z,1.60
2018-12-15T16:08:35.837Z,1.60
2018-12-15T16:11:04.650Z,1.60
2018-12-15T16:13:33.442Z,1.60
2018-12-15T16:16:02.265Z,1.60
2018-12-15T16:18:31.066Z,1.70
2018-12-15T16:20:59.861Z,1.70
2018-12-15T16:23:28.742Z,1.60
2018-12-15T16:25:57.548Z,1.70
2018-12-15T16:28:26.416Z,1.70
2018-12-15T16:30:55.215Z,1.70
2018-12-15T16:33:24.033Z,1.70
2018-12-15T16:35:52.873Z,1.70
2018-12-15T16:38:21.791Z,1.70
2018-12-15T16:40:50.582Z,1.80
2018-12-15T16:43:19.458Z,1.80
2018-12-15T16:45:49.407Z,1.80
2018-12-15T16:48:18.239Z,1.80
2018-12-15T16:50:50.109Z,1.80
2018-12-15T16:53:18.411Z,1.80
2018-12-15T16:55:47.251Z,1.70
2018-12-15T16:58:16.086Z,1.70
2018-12-15T17:00:44.968Z,1.70
2018-12-15T17:03:13.790Z,1.70
2018-12-15T17:05:42.595Z,1.70
2018-12-15T17:08:11.409Z,1.70
2018-12-15T17:10:41.182Z,1.70
2018-12-15T17:13:10.002Z,1.70
2018-12-15T17:15:38.814Z,1.70
2018-12-15T17:18:07.686Z,1.60
2018-12-15T17:20:36.538Z,1.60
2018-12-15T17:23:05.439Z,1.60
2018-12-15T17:25:34.288Z,1.60
2018-12-15T17:28:03.568Z,1.60
2018-12-15T17:30:32.478Z,1.50
2018-12-15T17:33:01.282Z,1.50
2018-12-15T17:35:30.104Z,1.50
2018-12-15T17:37:58.962Z,1.40
2018-12-15T17:40:27.782Z,1.50
2018-12-15T17:42:56.578Z,1.40
2018-12-15T17:45:25.392Z,1.40
2018-12-15T17:47:54.263Z,1.40
2018-12-15T17:50:23.106Z,1.40
2018-12-15T17:52:51.996Z,1.40
2018-12-15T17:55:20.792Z,1.30
2018-12-15T17:57:49.666Z,1.40
2018-12-15T18:00:18.557Z,1.30
2018-12-15T18:02:47.417Z,1.30
2018-12-15T18:05:16.222Z,1.30
2018-12-15T18:07:45.124Z,1.30
2018-12-15T18:10:14.115Z,1.30
2018-12-15T18:12:42.879Z,1.20
2018-12-15T18:15:11.775Z,1.30
2018-12-15T18:17:40.594Z,1.30
2018-12-15T18:20:10.583Z,1.30
2018-12-15T18:22:39.381Z,1.20
2018-12-15T18:25:08.376Z,1.20
2018-12-15T18:27:37.179Z,1.30
2018-12-15T18:30:08.655Z,1.20
2018-12-15T18:32:37.473Z,1.20
2018-12-15T18:35:06.374Z,1.10
2018-12-15T18:37:35.173Z,1.10
2018-12-15T18:40:04.457Z,1.10
2018-12-15T18:42:33.374Z,1.10
2018-12-15T18:45:02.248Z,1.00
2018-12-15T18:47:31.054Z,1.10
2018-12-15T18:49:59.865Z,1.20
2018-12-15T18:52:28.674Z,1.10
2018-12-15T18:54:57.474Z,1.20
2018-12-15T18:57:26.273Z,1.20
2018-12-15T18:59:55.081Z,1.20
2018-12-15T19:02:23.862Z,1.10
2018-12-15T19:04:53.726Z,1.10
2018-12-15T19:07:22.550Z,1.10
2018-12-15T19:09:51.383Z,1.10
2018-12-15T19:12:20.342Z,1.10
2018-12-15T19:14:49.180Z,1.10
2018-12-15T19:17:18.030Z,1.20
2018-12-15T19:19:46.835Z,1.20
2018-12-15T19:22:15.694Z,1.20
2018-12-15T19:24:44.554Z,1.20
2018-12-15T19:27:13.382Z,1.20
2018-12-15T19:29:42.179Z,1.20
2018-12-15T19:32:11.074Z,1.20
2018-12-15T19:34:39.871Z,1.10
2018-12-15T19:37:08.769Z,1.20
2018-12-15T19:39:37.603Z,1.20
2018-12-15T19:42:06.437Z,1.20
2018-12-15T19:44:35.221Z,1.10
2018-12-15T19:47:05.155Z,1.10
2018-12-15T19:49:33.940Z,1.10
2018-12-15T19:52:02.788Z,1.10
2018-12-15T19:54:31.638Z,1.10
2018-12-15T19:57:00.494Z,1.10
2018-12-15T19:59:29.289Z,1.10
2018-12-15T20:01:58.245Z,1.10
2018-12-15T20:04:27.072Z,1.10
2018-12-15T20:06:55.923Z,1.10
2018-12-15T20:09:25.033Z,1.00
2018-12-15T20:11:53.949Z,1.10
2018-12-15T20:14:22.787Z,1.00
2018-12-15T20:16:51.626Z,1.00
2018-12-15T20:19:20.427Z,1.10
2018-12-15T20:21:49.254Z,1.00
2018-12-15T20:24:18.163Z,1.00
2018-12-15T20:26:47.049Z,1.00
2018-12-15T20:29:15.854Z,1.00
2018-12-15T20:31:44.724Z,1.00
2018-12-15T20:34:13.608Z,1.00
2018-12-15T20:36:42.415Z,0.90
2018-12-15T20:39:11.379Z,1.00
2018-12-15T20:41:40.185Z,1.00
2018-12-15T20:44:09.061Z,1.00
2018-12-15T20:46:37.899Z,1.00
2018-12-15T20:49:06.719Z,1.00
2018-12-15T20:51:35.515Z,1.00
2018-12-15T20:54:04.497Z,1.00
2018-12-15T20:56:33.322Z,1.00
2018-12-15T20:59:02.102Z,1.00
2018-12-15T21:01:31.178Z,1.10
2018-12-15T21:03:59.990Z,1.10
2018-12-15T21:06:28.794Z,1.10
2018-12-15T21:08:57.623Z,1.10
2018-12-15T21:11:26.429Z,1.00
2018-12-15T21:13:55.243Z,1.10
2018-12-15T21:16:24.055Z,1.10
2018-12-15T21:18:52.894Z,1.10
2018-12-15T21:21:21.723Z,1.10
2018-12-15T21:23:50.562Z,1.10
2018-12-15T21:26:19.376Z,1.10
2018-12-15T21:28:48.183Z,1.10
2018-12-15T21:31:17.032Z,1.10
2018-12-15T21:33:45.816Z,1.10
2018-12-15T21:36:14.614Z,1.10
2018-12-15T21:38:43.447Z,1.10
2018-12-15T21:41:12.427Z,1.20
2018-12-15T21:43:41.242Z,1.10
2018-12-15T21:46:10.064Z,1.10
2018-12-15T21:48:38.899Z,1.20
2018-12-15T21:51:07.719Z,1.20
2018-12-15T21:53:36.560Z,1.30
2018-12-15T21:56:05.467Z,1.30
2018-12-15T21:58:34.315Z,1.30
2018-12-15T22:01:03.165Z,1.20
2018-12-15T22:03:32.011Z,1.30
2018-12-15T22:06:00.839Z,1.20
2018-12-15T22:08:29.672Z,1.30
2018-12-15T22:10:58.523Z,1.30
2018-12-15T22:13:27.371Z,1.30
2018-12-15T22:15:56.195Z,1.30
2018-12-15T22:18:25.044Z,1.30
2018-12-15T22:20:54.204Z,1.30
2018-12-15T22:23:23.093Z,1.30
2018-12-15T22:25:51.931Z,1.30
2018-12-15T22:28:20.762Z,1.20
2018-12-15T22:30:49.530Z,1.20
2018-12-15T22:33:18.376Z,1.20
2018-12-15T22:35:47.155Z,1.20
2018-12-15T22:38:15.952Z,1.20
2018-12-15T22:40:44.734Z,1.20
2018-12-15T22:43:13.499Z,1.30
2018-12-15T22:45:42.353Z,1.30
2018-12-15T22:48:11.162Z,1.30
2018-12-15T22:50:39.991Z,1.30
2018-12-15T22:53:08.810Z,1.30
2018-12-15T22:55:37.614Z,1.30
2018-12-15T22:58:06.458Z,1.30
2018-12-15T23:00:40.653Z,1.40
2018-12-15T23:03:11.382Z,1.40
2018-12-15T23:05:40.168Z,1.50
2018-12-15T23:08:09.008Z,1.50
2018-12-15T23:10:37.818Z,1.40
2018-12-15T23:13:07.353Z,1.40
2018-12-15T23:15:37.483Z,1.40
2018-12-15T23:18:06.569Z,1.50
2018-12-15T23:20:35.543Z,1.40
2018-12-15T23:23:04.577Z,1.40
2018-12-15T23:25:33.402Z,1.40
2018-12-15T23:28:02.358Z,1.40
2018-12-15T23:30:31.192Z,1.40
2018-12-15T23:32:59.998Z,1.40
2018-12-15T23:35:28.907Z,1.40
2018-12-15T23:37:57.705Z,1.40
2018-12-15T23:40:26.521Z,1.50
2018-12-15T23:42:55.324Z,1.50
2018-12-15T23:45:24.213Z,1.60
2018-12-15T23:47:53.019Z,1.50
2018-12-15T23:50:21.934Z,1.50
2018-12-15T23:52:50.855Z,1.50
2018-12-15T23:55:20.908Z,1.50
2018-12-15T23:57:49.915Z,1.50
